Containerships 6 — DABH — position and weather

sailwx.info

Track history (hours):
 
Tides and Currents Weather Stations Pressure Air Temp Water Temp Dewpoint Dewpoint Depression Visibility Wind Speed Wind Dir Waves Ship Positions

Containerships 6

Last reported at 2014-Oct-23 22:17 UTC. Time now 2014-Oct-24 07:04 UTC.
Position N 60°03' E 027°22'.

Length 155 m; beam 21.8 m; draft 8.9 m.

Type: Ship (hazmat cat A). MMSI: 211315096.

Date/timePositionNaut miles runAvg speedWind from/ knotsBaromVisibWave heightAir tempDewpointWater temp
2014-Oct-23 22:17N 60°03' E 027°22'1215.3
2014-Oct-23 21:28N 59°58' E 026°60'1415.0
2014-Oct-23 20:33N 59°58' E 026°32'4811.2
2014-Oct-23 16:15N 59°47' E 024°59'3 3.9
2014-Oct-23 15:33N 59°46' E 024°54'7 6.9
2014-Oct-23 14:34N 59°45' E 024°40'1515.4
2014-Oct-23 13:33N 59°41' E 024°11'1515.6
2014-Oct-23 12:33N 59°36' E 023°42'321 7.5
2014-Oct-21 17:33N 55°57' E 016°22'1817.8
2014-Oct-21 16:33N 55°48' E 015°55'2118.1
2014-Oct-21 15:23N 55°38' E 015°22'1518.5
2014-Oct-21 14:33N 55°30' E 014°58'1818.0
2014-Oct-21 13:34N 55°19' E 014°33'1818.4
2014-Oct-21 12:33N 55°05' E 014°13'1818.2
2014-Oct-21 11:33N 54°57' E 013°44'2418.5
2014-Oct-21 10:15N 54°49' E 013°05'3617.8
2014-Oct-21 08:14N 54°29' E 012°14'1116.2
2014-Oct-21 07:33N 54°25' E 011°56'4218.0
2014-Oct-21 05:14N 54°34' E 010°46'1117.0
2014-Oct-21 04:33N 54°31' E 010°27'1212.1
2014-Oct-21 03:33N 54°23' E 010°11'3 2.9
2014-Oct-21 02:33N 54°22' E 010°06'7 7.5
2014-Oct-21 01:33N 54°21' E 009°54'7 7.0
2014-Oct-21 00:33N 54°18' E 009°43'6 5.6
2014-Oct-20 23:33N 54°14' E 009°36'9 8.2
2014-Oct-20 22:24N 54°09' E 009°23'16 5.6
2014-Oct-20 19:33N 53°55' E 009°11'2 2.0
2014-Oct-20 18:33N 53°53' E 009°08'4 4.1
2014-Oct-20 17:34N 53°52' E 009°02'1212.5
2014-Oct-20 16:33N 53°54' E 008°41'1414.2
2014-Oct-20 15:33N 53°60' E 008°19'1817.8
2014-Oct-20 14:33N 53°57' E 007°49'5517.0
2014-Oct-20 11:20N 53°45' E 006°18'1317.2
2014-Oct-20 10:33N 53°41' E 005°57'1717.3
2014-Oct-20 09:33N 53°35' E 005°29'1717.3
2014-Oct-20 08:34N 53°28' E 005°02'1716.6
2014-Oct-20 07:33N 53°19' E 004°39'1717.3
2014-Oct-20 06:32N 53°03' E 004°26'2117.2
2014-Oct-20 05:21N 52°45' E 004°09'1417.2
2014-Oct-20 04:31N 52°33' E 003°57'1617.1
2014-Oct-20 03:34N 52°17' E 003°52'1515.0
2014-Oct-20 02:34N 52°03' E 003°57'1313.5
2014-Oct-20 01:33N 51°55' E 004°15'7 6.5
2014-Oct-20 00:32N 51°53' E 004°25'0 0.0
2014-Oct-19 23:32N 51°53' E 004°25'0 0.0
2014-Oct-19 22:32N 51°53' E 004°25'0 0.0
2014-Oct-19 21:32N 51°53' E 004°25'0 0.0
2014-Oct-19 20:32N 51°53' E 004°25'0 0.0
2014-Oct-19 19:32N 51°53' E 004°25'0 0.0
2014-Oct-19 18:29N 51°53' E 004°25'0 0.0
2014-Oct-19 17:32N 51°53' E 004°25'0 0.0
2014-Oct-19 16:32N 51°53' E 004°25'0 0.0
2014-Oct-19 15:32N 51°53' E 004°25'0 0.0
2014-Oct-19 14:32N 51°53' E 004°25'0 0.0
2014-Oct-19 13:32N 51°53' E 004°25'0 0.0
2014-Oct-19 12:32N 51°53' E 004°25'0 0.0
2014-Oct-19 11:32N 51°53' E 004°25'0 0.0
2014-Oct-19 10:29N 51°53' E 004°25'2 2.2
2014-Oct-19 09:33N 51°54' E 004°22'1212.2
2014-Oct-19 08:33N 51°59' E 004°04'1616.0
2014-Oct-19 07:33N 52°04' E 003°39'7518.8
2014-Oct-19 03:33N 52°46' E 001°58'2019.5
2014-Oct-19 02:33N 52°59' E 001°33'1919.1
2014-Oct-19 01:33N 53°14' E 001°14'3718.6
2014-Oct-18 23:33N 53°46' E 000°41'1918.8
2014-Oct-18 22:33N 53°60' E 000°20'1918.8
2014-Oct-18 21:33N 54°13' W 000°02'1918.5
2014-Oct-18 20:33N 54°27' W 000°23'1818.4
2014-Oct-18 19:33N 54°38' W 000°50'11 3.7
2014-Oct-18 16:28N 54°36' W 001°09'0 0.0
2014-Oct-18 15:31N 54°36' W 001°09'0 0.0
2014-Oct-18 14:31N 54°36' W 001°09'0 0.0
2014-Oct-18 13:31N 54°36' W 001°09'0 0.0
2014-Oct-18 12:16N 54°36' W 001°09'0 0.0
2014-Oct-18 11:31N 54°36' W 001°09'0 0.0
2014-Oct-18 10:19N 54°36' W 001°09'0 0.0
2014-Oct-18 09:31N 54°36' W 001°09'0 0.0
2014-Oct-18 08:31N 54°36' W 001°09'0 0.0
2014-Oct-18 07:33N 54°36' W 001°09'8 7.6
2014-Oct-18 06:33N 54°43' W 001°03'2017.5
2014-Oct-18 05:25N 54°51' W 000°32'1517.9
2014-Oct-18 04:33N 54°59' W 000°08'37818.8
2014-Oct-17 08:28N 57°44' E 010°06'1820.3
2014-Oct-17 07:33N 57°48' E 010°39'1919.2
2014-Oct-17 06:33N 57°37' E 011°09'2019.6
2014-Oct-17 05:33N 57°21' E 011°31'2020.3
2014-Oct-17 04:34N 57°02' E 011°43'2019.6
2014-Oct-17 03:33N 56°45' E 011°59'1919.1
2014-Oct-17 02:34N 56°28' E 012°15'2019.7
2014-Oct-17 01:34N 56°10' E 012°29'1918.9
2014-Oct-17 00:33N 55°53' E 012°44'1616.1
2014-Oct-16 23:33N 55°37' E 012°42'1312.7
2014-Oct-16 22:33N 55°24' E 012°41'1413.7
2014-Oct-16 21:33N 55°16' E 013°00'4318.9
2014-Oct-16 19:18N 55°13' E 014°15'1518.9
2014-Oct-16 18:29N 55°25' E 014°32'1819.0
2014-Oct-16 17:33N 55°35' E 014°58'2119.2
2014-Oct-16 16:28N 55°44' E 015°31'2119.4
2014-Oct-16 15:24N 55°55' E 016°03'1719.5
2014-Oct-16 14:33N 56°03' E 016°29'30118.8
2014-Oct-15 22:33N 59°36' E 023°08'1919.4
2014-Oct-15 21:33N 59°41' E 023°44'2019.5
2014-Oct-15 20:33N 59°47' E 024°22'3417.3
2014-Oct-15 18:34N 60°10' E 025°13'3 2.8
2014-Oct-15 17:32N 60°13' E 025°12'0 0.0
2014-Oct-15 16:23N 60°13' E 025°12'0 0.0
2014-Oct-15 15:32N 60°13' E 025°12'0 0.0
2014-Oct-15 14:32N 60°13' E 025°12'0 0.0
2014-Oct-15 13:29N 60°13' E 025°12'0 0.0
2014-Oct-15 12:32N 60°13' E 025°12'0 0.0
2014-Oct-15 11:32N 60°13' E 025°12'0 0.0
2014-Oct-15 10:32N 60°13' E 025°12'0 0.0
2014-Oct-15 09:32N 60°13' E 025°12'0 0.0
2014-Oct-15 08:32N 60°13' E 025°12'0 0.0
2014-Oct-15 07:32N 60°13' E 025°12'0 0.0
2014-Oct-15 06:29N 60°13' E 025°12'23 5.6
2014-Oct-15 02:22N 59°58' E 025°47'1719.3
2014-Oct-15 01:30N 60°01' E 026°20'1718.3
2014-Oct-15 00:34N 60°00' E 026°54'2418.5
2014-Oct-14 23:17N 60°10' E 027°37'13 0.5
2014-Oct-13 23:11N 60°02' E 027°18'1216.2
2014-Oct-13 22:26N 59°58' E 026°54'  
Track history (hours):
 
Tides and Currents Weather Stations Pressure Air Temp Water Temp Dewpoint Dewpoint Depression Visibility Wind Speed Wind Dir Waves Ship Positions

Containerships 6

Last reported at 2014-Oct-23 22:17 UTC. Time now 2014-Oct-24 07:04 UTC.
Position N 60°03' E 027°22'.

Length 155 m; beam 21.8 m; draft 8.9 m.

Type: Ship (hazmat cat A). MMSI: 211315096.

Date/timePositionNaut miles runAvg speedWind from/ knotsBaromVisibWave heightAir tempDewpointWater temp
2014-Oct-23 22:17N 60°03' E 027°22'1215.3
2014-Oct-23 21:28N 59°58' E 026°60'1415.0
2014-Oct-23 20:33N 59°58' E 026°32'4811.2
2014-Oct-23 16:15N 59°47' E 024°59'3 3.9
2014-Oct-23 15:33N 59°46' E 024°54'7 6.9
2014-Oct-23 14:34N 59°45' E 024°40'1515.4
2014-Oct-23 13:33N 59°41' E 024°11'1515.6
2014-Oct-23 12:33N 59°36' E 023°42'321 7.5
2014-Oct-21 17:33N 55°57' E 016°22'1817.8
2014-Oct-21 16:33N 55°48' E 015°55'2118.1
2014-Oct-21 15:23N 55°38' E 015°22'1518.5
2014-Oct-21 14:33N 55°30' E 014°58'1818.0
2014-Oct-21 13:34N 55°19' E 014°33'1818.4
2014-Oct-21 12:33N 55°05' E 014°13'1818.2
2014-Oct-21 11:33N 54°57' E 013°44'2418.5
2014-Oct-21 10:15N 54°49' E 013°05'3617.8
2014-Oct-21 08:14N 54°29' E 012°14'1116.2
2014-Oct-21 07:33N 54°25' E 011°56'4218.0
2014-Oct-21 05:14N 54°34' E 010°46'1117.0
2014-Oct-21 04:33N 54°31' E 010°27'1212.1
2014-Oct-21 03:33N 54°23' E 010°11'3 2.9
2014-Oct-21 02:33N 54°22' E 010°06'7 7.5
2014-Oct-21 01:33N 54°21' E 009°54'7 7.0
2014-Oct-21 00:33N 54°18' E 009°43'6 5.6
2014-Oct-20 23:33N 54°14' E 009°36'9 8.2
2014-Oct-20 22:24N 54°09' E 009°23'16 5.6
2014-Oct-20 19:33N 53°55' E 009°11'2 2.0
2014-Oct-20 18:33N 53°53' E 009°08'4 4.1
2014-Oct-20 17:34N 53°52' E 009°02'1212.5
2014-Oct-20 16:33N 53°54' E 008°41'1414.2
2014-Oct-20 15:33N 53°60' E 008°19'1817.8
2014-Oct-20 14:33N 53°57' E 007°49'5517.0
2014-Oct-20 11:20N 53°45' E 006°18'1317.2
2014-Oct-20 10:33N 53°41' E 005°57'1717.3
2014-Oct-20 09:33N 53°35' E 005°29'1717.3
2014-Oct-20 08:34N 53°28' E 005°02'1716.6
2014-Oct-20 07:33N 53°19' E 004°39'1717.3
2014-Oct-20 06:32N 53°03' E 004°26'2117.2
2014-Oct-20 05:21N 52°45' E 004°09'1417.2
2014-Oct-20 04:31N 52°33' E 003°57'1617.1
2014-Oct-20 03:34N 52°17' E 003°52'1515.0
2014-Oct-20 02:34N 52°03' E 003°57'1313.5
2014-Oct-20 01:33N 51°55' E 004°15'7 6.5
2014-Oct-20 00:32N 51°53' E 004°25'0 0.0
2014-Oct-19 23:32N 51°53' E 004°25'0 0.0
2014-Oct-19 22:32N 51°53' E 004°25'0 0.0
2014-Oct-19 21:32N 51°53' E 004°25'0 0.0
2014-Oct-19 20:32N 51°53' E 004°25'0 0.0
2014-Oct-19 19:32N 51°53' E 004°25'0 0.0
2014-Oct-19 18:29N 51°53' E 004°25'0 0.0
2014-Oct-19 17:32N 51°53' E 004°25'0 0.0
2014-Oct-19 16:32N 51°53' E 004°25'0 0.0
2014-Oct-19 15:32N 51°53' E 004°25'0 0.0
2014-Oct-19 14:32N 51°53' E 004°25'0 0.0
2014-Oct-19 13:32N 51°53' E 004°25'0 0.0
2014-Oct-19 12:32N 51°53' E 004°25'0 0.0
2014-Oct-19 11:32N 51°53' E 004°25'0 0.0
2014-Oct-19 10:29N 51°53' E 004°25'2 2.2
2014-Oct-19 09:33N 51°54' E 004°22'1212.2
2014-Oct-19 08:33N 51°59' E 004°04'1616.0
2014-Oct-19 07:33N 52°04' E 003°39'7518.8
2014-Oct-19 03:33N 52°46' E 001°58'2019.5
2014-Oct-19 02:33N 52°59' E 001°33'1919.1
2014-Oct-19 01:33N 53°14' E 001°14'3718.6
2014-Oct-18 23:33N 53°46' E 000°41'1918.8
2014-Oct-18 22:33N 53°60' E 000°20'1918.8
2014-Oct-18 21:33N 54°13' W 000°02'1918.5
2014-Oct-18 20:33N 54°27' W 000°23'1818.4
2014-Oct-18 19:33N 54°38' W 000°50'11 3.7
2014-Oct-18 16:28N 54°36' W 001°09'0 0.0
2014-Oct-18 15:31N 54°36' W 001°09'0 0.0
2014-Oct-18 14:31N 54°36' W 001°09'0 0.0
2014-Oct-18 13:31N 54°36' W 001°09'0 0.0
2014-Oct-18 12:16N 54°36' W 001°09'0 0.0
2014-Oct-18 11:31N 54°36' W 001°09'0 0.0
2014-Oct-18 10:19N 54°36' W 001°09'0 0.0
2014-Oct-18 09:31N 54°36' W 001°09'0 0.0
2014-Oct-18 08:31N 54°36' W 001°09'0 0.0
2014-Oct-18 07:33N 54°36' W 001°09'8 7.6
2014-Oct-18 06:33N 54°43' W 001°03'2017.5
2014-Oct-18 05:25N 54°51' W 000°32'1517.9
2014-Oct-18 04:33N 54°59' W 000°08'37818.8
2014-Oct-17 08:28N 57°44' E 010°06'1820.3
2014-Oct-17 07:33N 57°48' E 010°39'1919.2
2014-Oct-17 06:33N 57°37' E 011°09'2019.6
2014-Oct-17 05:33N 57°21' E 011°31'2020.3
2014-Oct-17 04:34N 57°02' E 011°43'2019.6
2014-Oct-17 03:33N 56°45' E 011°59'1919.1
2014-Oct-17 02:34N 56°28' E 012°15'2019.7
2014-Oct-17 01:34N 56°10' E 012°29'1918.9
2014-Oct-17 00:33N 55°53' E 012°44'1616.1
2014-Oct-16 23:33N 55°37' E 012°42'1312.7
2014-Oct-16 22:33N 55°24' E 012°41'1413.7
2014-Oct-16 21:33N 55°16' E 013°00'4318.9
2014-Oct-16 19:18N 55°13' E 014°15'1518.9
2014-Oct-16 18:29N 55°25' E 014°32'1819.0
2014-Oct-16 17:33N 55°35' E 014°58'2119.2
2014-Oct-16 16:28N 55°44' E 015°31'2119.4
2014-Oct-16 15:24N 55°55' E 016°03'1719.5
2014-Oct-16 14:33N 56°03' E 016°29'30118.8
2014-Oct-15 22:33N 59°36' E 023°08'1919.4
2014-Oct-15 21:33N 59°41' E 023°44'2019.5
2014-Oct-15 20:33N 59°47' E 024°22'3417.3
2014-Oct-15 18:34N 60°10' E 025°13'3 2.8
2014-Oct-15 17:32N 60°13' E 025°12'0 0.0
2014-Oct-15 16:23N 60°13' E 025°12'0 0.0
2014-Oct-15 15:32N 60°13' E 025°12'0 0.0
2014-Oct-15 14:32N 60°13' E 025°12'0 0.0
2014-Oct-15 13:29N 60°13' E 025°12'0 0.0
2014-Oct-15 12:32N 60°13' E 025°12'0 0.0
2014-Oct-15 11:32N 60°13' E 025°12'0 0.0
2014-Oct-15 10:32N 60°13' E 025°12'0 0.0
2014-Oct-15 09:32N 60°13' E 025°12'0 0.0
2014-Oct-15 08:32N 60°13' E 025°12'0 0.0
2014-Oct-15 07:32N 60°13' E 025°12'0 0.0
2014-Oct-15 06:29N 60°13' E 025°12'23 5.6
2014-Oct-15 02:22N 59°58' E 025°47'1719.3
2014-Oct-15 01:30N 60°01' E 026°20'1718.3
2014-Oct-15 00:34N 60°00' E 026°54'2418.5
2014-Oct-14 23:17N 60°10' E 027°37'13 0.5
2014-Oct-13 23:11N 60°02' E 027°18'1216.2
2014-Oct-13 22:26N 59°58' E 026°54'  

Dump ship's entire track history